Hillsdale, Michigan
Current Conditions -  °F | °C
As of 5:14 PM on Sunday 21 Dec 2014 (Local Time) from KJYM Reporting Station
Overcast Overcast  
Wind Chill: 26°   Ceiling: 5000
Heat Index: 32°   Visibility: 7mi
Dew Point: 28°   Wind: 7mph
Humidity: 83%   Direction: 140°SE
Pressure: 30.17"   Gusts: NA
Location:  41.92°N, 84.63°W
Report Text: KJYM 212214Z AUTO 14006KT 7SM OVC050 00/M02 A3017 RMK AO2 T00011025
Loading
Personal Weather Stations






























Interactive Weather Map New forecast layout! Learn more

10-Day Weather Forecast

Advertisements
Track Severe Weather on mobile